Main page
METAR-TAF:

METAR-TAF

Airports :

León Airport

León, Spain

latitude: 42-35N, longitude: 005-39W, elevation: 926 m

Current weather observation

The report was made 22 minutes ago, at 20:00 UTC
Wind 2 kt from variable directions
Temperature -1°C
Humidity 80%
Pressure 1027 hPa
Visibility 10 km or more
no clouds below 1500 m and no cumulonimbus

METAR: LELN 212000Z VRB02KT CAVOK M01/M04 Q1027

Time: 21:22 (20:22 UTC)

Forecast

The report was made 6 hours and 22 minutes ago, at 14:00 UTC
Forecast valid from 21 at 15 UTC to 22 at 15 UTC
Wind 5 kt from variable directions
Visibility 10 km or more
no clouds below 1500 m and no cumulonimbus
Probability 30% :
Temporary
from 22 at 13 UTC to 22 at 15 UTC
Wind 10 kt from the Northeast

TAF: LELN 211400Z 2115/2215 VRB05KT CAVOK TX07/2214Z TNM06/2207Z PROB30 TEMPO 2213/2215 05010KT

Weather observations and forecasts of more than 4000 airports (METAR and TAF reports).

The available stations are represented by yellow and red dots on the map.

Hover mouse over dot to see the name of the station.

Then click to see weather observations and forecasts.

To change the map : click on the green buttons with a black cross to zoom in, on the green button with a dash to zoom out, or on the green arrows for adjacent maps.


METAR-TAF: